createdAt,value
2022-08-29T00:03:39.689Z,1.5
2022-08-29T00:09:59.542Z,1.5
2022-08-29T00:16:22.486Z,1.1
2022-08-29T00:22:42.521Z,1.1
2022-08-29T00:29:05.473Z,2.1
2022-08-29T00:35:25.558Z,2.1
2022-08-29T00:41:48.510Z,0.6
2022-08-29T00:48:08.506Z,0.6
2022-08-29T00:54:31.546Z,0.6
2022-08-29T01:00:51.535Z,0.6
2022-08-29T01:07:14.463Z,0.7
2022-08-29T01:13:34.533Z,0.7
2022-08-29T01:19:57.550Z,0.9
2022-08-29T01:26:17.526Z,0.9
2022-08-29T01:32:40.455Z,1.7
2022-08-29T01:39:00.573Z,1.7
2022-08-29T01:45:23.567Z,0.4
2022-08-29T01:51:43.497Z,0.4
2022-08-29T01:58:06.563Z,1.1
2022-08-29T02:04:26.531Z,1.1
2022-08-29T02:10:49.559Z,1
2022-08-29T02:17:09.492Z,1
2022-08-29T02:23:32.474Z,0.7
2022-08-29T02:29:52.527Z,0.7
2022-08-29T02:36:15.511Z,0.2
2022-08-29T02:42:35.457Z,0.2
2022-08-29T02:49:01.186Z,0.3
2022-08-29T02:55:18.570Z,0.3
2022-08-29T03:01:41.599Z,0.9
2022-08-29T03:08:01.531Z,0.9
2022-08-29T03:14:24.520Z,1.1
2022-08-29T03:20:44.586Z,1.1
2022-08-29T03:27:07.484Z,0.6
2022-08-29T03:33:27.695Z,0.6
2022-08-29T03:39:50.527Z,1.2
2022-08-29T03:55:40.391Z,2.3
2022-08-29T04:02:00.593Z,2.3
2022-08-29T04:08:23.513Z,2.7
2022-08-29T04:14:43.508Z,2.7
2022-08-29T04:21:06.499Z,1.3
2022-08-29T04:27:26.534Z,1.3
2022-08-29T04:33:49.492Z,1.4
2022-08-29T04:40:09.512Z,1.4
2022-08-29T04:46:32.555Z,1.1
2022-08-29T04:52:52.522Z,1.1
2022-08-29T04:59:15.544Z,4.1
2022-08-29T05:05:35.505Z,4.1
2022-08-29T05:11:58.467Z,2
2022-08-29T05:18:18.540Z,2
2022-08-29T05:24:41.482Z,1.3
2022-08-29T05:31:01.558Z,1.3
2022-08-29T05:37:24.485Z,1.1
2022-08-29T05:43:44.478Z,1.1
2022-08-29T05:50:07.533Z,0.9
2022-08-29T05:56:27.492Z,0.9
2022-08-29T06:02:51.082Z,1.9
2022-08-29T06:09:10.475Z,1.9
2022-08-29T06:15:33.507Z,1.9
2022-08-29T06:21:53.576Z,1.9
2022-08-29T06:28:16.562Z,1.5
2022-08-29T06:34:36.548Z,1.5
2022-08-29T06:40:59.483Z,1.5
2022-08-29T06:47:19.474Z,1.5
2022-08-29T06:53:42.830Z,2
2022-08-29T07:00:02.516Z,2
2022-08-29T07:06:25.519Z,2
2022-08-29T07:12:45.489Z,2
2022-08-29T07:19:08.473Z,2
2022-08-29T07:25:28.513Z,2
2022-08-29T07:31:51.493Z,1.3
2022-08-29T07:38:11.604Z,1.3
2022-08-29T07:44:34.770Z,1.2
2022-08-29T07:50:54.465Z,1.2
2022-08-29T07:57:17.542Z,1.8
2022-08-29T08:03:37.500Z,1.8
2022-08-29T08:10:00.502Z,2
2022-08-29T08:16:20.660Z,2
2022-08-29T08:22:43.470Z,2.2
2022-08-29T08:29:03.553Z,2.2
2022-08-29T08:35:26.471Z,1.3
2022-08-29T08:41:46.488Z,1.3
2022-08-29T08:48:09.492Z,1.1
2022-08-29T08:54:29.471Z,1.1
2022-08-29T09:00:52.516Z,1.5
2022-08-29T09:07:12.498Z,1.5
2022-08-29T09:13:35.501Z,1.2
2022-08-29T09:19:55.522Z,1.2
2022-08-29T09:36:49.594Z,2.7
2022-08-29T09:43:09.593Z,2.7
2022-08-29T09:49:32.748Z,2.7
2022-08-29T09:55:52.555Z,2.7
2022-08-29T10:02:15.568Z,1.2
2022-08-29T10:08:35.799Z,1.2
2022-08-29T10:14:58.588Z,1.1
2022-08-29T10:21:18.803Z,1.1
2022-08-29T10:27:41.908Z,0.4
2022-08-29T10:34:01.554Z,0.4
2022-08-29T10:40:24.592Z,0.6
2022-08-29T10:46:44.575Z,0.6
2022-08-29T10:53:07.891Z,0.2
2022-08-29T10:59:27.572Z,0.2
2022-08-29T11:05:50.562Z,0.9
2022-08-29T11:12:10.966Z,0.9
2022-08-29T11:18:33.908Z,1.5
2022-08-29T11:24:53.908Z,1.5
2022-08-29T11:31:18.345Z,0.4
2022-08-29T11:37:38.682Z,0.4
2022-08-29T11:44:01.873Z,0.8
2022-08-29T11:50:21.629Z,0.8
2022-08-29T11:56:44.590Z,0.8
2022-08-29T12:03:14.876Z,0.8
2022-08-29T12:09:27.580Z,1.3
2022-08-29T12:15:47.557Z,1.3
2022-08-29T12:22:22.008Z,1.4
2022-08-29T12:28:30.737Z,1.4
2022-08-29T12:34:53.867Z,0.7
2022-08-29T12:41:13.774Z,0.7
2022-08-29T12:47:36.748Z,0.9
2022-08-29T12:53:56.876Z,0.9
2022-08-29T13:00:19.590Z,0.8
2022-08-29T13:06:39.531Z,0.8
2022-08-29T13:13:02.701Z,0.6
2022-08-29T13:19:22.549Z,0.6
2022-08-29T13:25:45.826Z,0.5
2022-08-29T13:32:05.584Z,0.5
2022-08-29T13:38:28.556Z,0.4
2022-08-29T13:44:48.686Z,0.4
2022-08-29T13:51:11.554Z,1.2
2022-08-29T13:57:31.542Z,1.2
2022-08-29T14:03:54.824Z,0.7
2022-08-29T14:10:14.537Z,0.7
2022-08-29T14:16:37.923Z,1
2022-08-29T14:33:20.993Z,1.6
2022-08-29T14:39:43.025Z,2.2
2022-08-29T14:46:02.513Z,2.2
2022-08-29T14:52:25.537Z,2.2
2022-08-29T14:58:45.473Z,2.2
2022-08-29T15:05:08.498Z,0.9
2022-08-29T15:11:29.647Z,0.9
2022-08-29T15:17:52.718Z,0.8
2022-08-29T15:24:12.803Z,0.8
2022-08-29T15:30:35.524Z,0.5
2022-08-29T15:36:55.514Z,0.5
2022-08-29T15:43:18.485Z,1.5
2022-08-29T15:49:38.474Z,1.5
2022-08-29T15:56:01.529Z,0.8
2022-08-29T16:02:21.533Z,0.8
2022-08-29T16:08:46.121Z,1.6
2022-08-29T16:15:07.772Z,1.6
2022-08-29T16:21:27.529Z,1.1
2022-08-29T16:27:47.535Z,1.1
2022-08-29T16:34:10.471Z,0.7
2022-08-29T16:40:30.621Z,0.7
2022-08-29T16:46:53.513Z,0.7
2022-08-29T16:53:13.465Z,0.7
2022-08-29T16:59:37.033Z,0.9
2022-08-29T17:05:56.476Z,0.9
2022-08-29T17:12:19.521Z,1.9
2022-08-29T17:18:39.495Z,1.9
2022-08-29T17:25:02.470Z,1.1
2022-08-29T17:31:22.704Z,1.1
2022-08-29T17:37:45.470Z,0.8
2022-08-29T17:44:05.486Z,0.8
2022-08-29T17:50:28.503Z,1.3
2022-08-29T17:56:48.471Z,1.3
2022-08-29T18:03:11.517Z,0.5
2022-08-29T18:09:31.469Z,0.5
2022-08-29T18:15:54.479Z,1.1
2022-08-29T18:22:14.493Z,1.1
2022-08-29T18:28:37.461Z,1.2
2022-08-29T18:35:00.609Z,1.2
2022-08-29T18:41:20.462Z,2
2022-08-29T18:47:40.469Z,2
2022-08-29T18:54:03.488Z,0.9
2022-08-29T19:00:23.468Z,0.9
2022-08-29T19:06:46.510Z,2.3
2022-08-29T19:13:06.473Z,2.3
2022-08-29T19:19:29.478Z,0.6
2022-08-29T19:25:49.532Z,0.6
2022-08-29T19:32:12.465Z,2.3
2022-08-29T19:38:32.509Z,2.3
2022-08-29T19:44:55.480Z,1.8
2022-08-29T19:51:15.475Z,1.8
2022-08-29T19:57:38.502Z,1.3
2022-08-29T20:03:58.470Z,1.3
2022-08-29T20:10:21.505Z,1.3
2022-08-29T20:27:53.053Z,1.4
2022-08-29T20:34:15.015Z,3.5
2022-08-29T20:40:34.528Z,3.5
2022-08-29T20:46:57.595Z,3.5
2022-08-29T20:53:32.190Z,3.5
2022-08-29T20:59:40.454Z,1.5
2022-08-29T21:06:00.504Z,1.5
2022-08-29T21:12:27.373Z,0.5
2022-08-29T21:18:43.488Z,0.5
2022-08-29T21:25:06.472Z,1.5
2022-08-29T21:31:26.500Z,1.5
2022-08-29T21:37:49.520Z,2.7
2022-08-29T21:44:09.457Z,2.7
2022-08-29T21:50:32.506Z,0.6
2022-08-29T21:56:52.504Z,0.6
2022-08-29T22:22:26.472Z,2.7
2022-08-29T22:28:46.508Z,2.7
2022-08-29T22:35:09.460Z,2.7
2022-08-29T22:41:29.486Z,2.7
2022-08-29T22:47:52.500Z,1.4
2022-08-29T22:54:12.474Z,1.4
2022-08-29T23:00:35.527Z,0.9
2022-08-29T23:06:55.459Z,0.9
2022-08-29T23:13:18.491Z,0.7
2022-08-29T23:19:40.985Z,0.7
2022-08-29T23:26:01.453Z,0.4
2022-08-29T23:32:21.507Z,0.4
2022-08-29T23:38:44.477Z,0.5
2022-08-29T23:45:04.492Z,0.5
2022-08-29T23:51:27.493Z,1.6
2022-08-29T23:57:47.490Z,1.6
